sensor_id;sensor_type;location;lat;lon;timestamp;pressure;altitude;pressure_sealevel;temperature;humidity
58373;BME280;44177;43.356;27.672;2024-03-22T00:01:44;98348.22;;;1.87;100.00
58373;BME280;44177;43.356;27.672;2024-03-22T00:04:10;98355.47;;;1.86;100.00
58373;BME280;44177;43.356;27.672;2024-03-22T00:06:36;98360.81;;;1.92;100.00
58373;BME280;44177;43.356;27.672;2024-03-22T00:09:01;98354.53;;;1.77;100.00
58373;BME280;44177;43.356;27.672;2024-03-22T00:11:26;98315.69;;;1.59;100.00
58373;BME280;44177;43.356;27.672;2024-03-22T00:13:52;98316.75;;;1.58;100.00
58373;BME280;44177;43.356;27.672;2024-03-22T00:16:17;98353.84;;;1.91;100.00
58373;BME280;44177;43.356;27.672;2024-03-22T00:18:44;98331.44;;;1.71;100.00
58373;BME280;44177;43.356;27.672;2024-03-22T00:21:10;98353.59;;;1.87;100.00
58373;BME280;44177;43.356;27.672;2024-03-22T00:23:35;98367.13;;;2.06;100.00
58373;BME280;44177;43.356;27.672;2024-03-22T00:26:01;98367.91;;;2.07;100.00
58373;BME280;44177;43.356;27.672;2024-03-22T00:28:26;98359.81;;;2.12;100.00
58373;BME280;44177;43.356;27.672;2024-03-22T00:30:51;98361.44;;;2.08;100.00
58373;BME280;44177;43.356;27.672;2024-03-22T00:33:17;98362.97;;;2.14;100.00
58373;BME280;44177;43.356;27.672;2024-03-22T00:35:42;98357.38;;;2.10;100.00
58373;BME280;44177;43.356;27.672;2024-03-22T00:38:08;98360.06;;;2.10;100.00
58373;BME280;44177;43.356;27.672;2024-03-22T00:40:33;98362.31;;;2.03;100.00
58373;BME280;44177;43.356;27.672;2024-03-22T00:42:59;98353.91;;;2.10;100.00
58373;BME280;44177;43.356;27.672;2024-03-22T00:45:24;98357.16;;;2.07;100.00
58373;BME280;44177;43.356;27.672;2024-03-22T00:47:50;98361.69;;;2.11;100.00
58373;BME280;44177;43.356;27.672;2024-03-22T00:50:15;98359.06;;;2.06;100.00
58373;BME280;44177;43.356;27.672;2024-03-22T00:52:40;98369.53;;;2.08;100.00
58373;BME280;44177;43.356;27.672;2024-03-22T00:55:07;98376.75;;;2.12;100.00
58373;BME280;44177;43.356;27.672;2024-03-22T00:57:32;98387.50;;;2.12;100.00
58373;BME280;44177;43.356;27.672;2024-03-22T00:59:58;98381.03;;;2.13;100.00
58373;BME280;44177;43.356;27.672;2024-03-22T01:02:23;98382.56;;;2.19;100.00
58373;BME280;44177;43.356;27.672;2024-03-22T01:04:49;98378.28;;;2.18;100.00
58373;BME280;44177;43.356;27.672;2024-03-22T01:07:15;98376.34;;;2.24;100.00
58373;BME280;44177;43.356;27.672;2024-03-22T01:09:41;98384.94;;;2.26;100.00
58373;BME280;44177;43.356;27.672;2024-03-22T01:12:09;98385.78;;;2.21;100.00
58373;BME280;44177;43.356;27.672;2024-03-22T01:14:35;98389.56;;;2.20;100.00
58373;BME280;44177;43.356;27.672;2024-03-22T01:17:01;98387.41;;;2.23;100.00
58373;BME280;44177;43.356;27.672;2024-03-22T01:19:26;98378.56;;;2.17;100.00
58373;BME280;44177;43.356;27.672;2024-03-22T01:21:51;98391.25;;;2.16;100.00
58373;BME280;44177;43.356;27.672;2024-03-22T01:24:17;98383.88;;;2.22;100.00
58373;BME280;44177;43.356;27.672;2024-03-22T01:26:42;98395.75;;;2.21;100.00
58373;BME280;44177;43.356;27.672;2024-03-22T01:29:08;98391.19;;;2.21;100.00
58373;BME280;44177;43.356;27.672;2024-03-22T01:31:33;98384.34;;;2.29;100.00
58373;BME280;44177;43.356;27.672;2024-03-22T01:33:59;98391.19;;;2.21;100.00
58373;BME280;44177;43.356;27.672;2024-03-22T01:36:24;98366.31;;;2.05;100.00
58373;BME280;44177;43.356;27.672;2024-03-22T01:38:50;98352.13;;;2.00;100.00
58373;BME280;44177;43.356;27.672;2024-03-22T01:41:15;98389.47;;;2.31;100.00
58373;BME280;44177;43.356;27.672;2024-03-22T01:43:41;98392.09;;;2.36;100.00
58373;BME280;44177;43.356;27.672;2024-03-22T01:46:07;98275.06;;;1.61;100.00
58373;BME280;44177;43.356;27.672;2024-03-22T01:48:33;98386.78;;;2.31;100.00
58373;BME280;44177;43.356;27.672;2024-03-22T01:50:59;98346.16;;;2.03;100.00
58373;BME280;44177;43.356;27.672;2024-03-22T01:53:25;98395.41;;;2.28;100.00
58373;BME280;44177;43.356;27.672;2024-03-22T01:55:51;98376.28;;;2.05;100.00
58373;BME280;44177;43.356;27.672;2024-03-22T01:58:17;98398.28;;;2.12;100.00
58373;BME280;44177;43.356;27.672;2024-03-22T02:00:43;98386.94;;;2.15;100.00
58373;BME280;44177;43.356;27.672;2024-03-22T02:03:08;98371.69;;;2.05;100.00
58373;BME280;44177;43.356;27.672;2024-03-22T02:05:34;98399.31;;;2.16;100.00
58373;BME280;44177;43.356;27.672;2024-03-22T02:07:59;98385.09;;;2.11;100.00
58373;BME280;44177;43.356;27.672;2024-03-22T02:10:25;98390.50;;;2.11;100.00
58373;BME280;44177;43.356;27.672;2024-03-22T02:12:50;98367.22;;;1.96;100.00
58373;BME280;44177;43.356;27.672;2024-03-22T02:15:16;98390.72;;;2.14;100.00
58373;BME280;44177;43.356;27.672;2024-03-22T02:17:41;98363.44;;;1.97;100.00
58373;BME280;44177;43.356;27.672;2024-03-22T02:20:07;98378.91;;;2.10;100.00
58373;BME280;44177;43.356;27.672;2024-03-22T02:22:33;98394.03;;;2.06;100.00
58373;BME280;44177;43.356;27.672;2024-03-22T02:24:58;98390.13;;;2.17;100.00
58373;BME280;44177;43.356;27.672;2024-03-22T02:27:25;98379.94;;;2.14;100.00
58373;BME280;44177;43.356;27.672;2024-03-22T02:29:51;98371.47;;;2.02;100.00
58373;BME280;44177;43.356;27.672;2024-03-22T02:32:16;98391.50;;;2.15;100.00
58373;BME280;44177;43.356;27.672;2024-03-22T02:34:42;98384.53;;;2.14;100.00
58373;BME280;44177;43.356;27.672;2024-03-22T02:37:07;98401.03;;;2.31;100.00
58373;BME280;44177;43.356;27.672;2024-03-22T02:39:33;98407.44;;;2.35;100.00
58373;BME280;44177;43.356;27.672;2024-03-22T02:41:58;98404.69;;;2.41;100.00
58373;BME280;44177;43.356;27.672;2024-03-22T02:44:24;98410.31;;;2.44;100.00
58373;BME280;44177;43.356;27.672;2024-03-22T02:46:49;98403.31;;;2.43;100.00
58373;BME280;44177;43.356;27.672;2024-03-22T02:49:15;98371.81;;;2.19;100.00
58373;BME280;44177;43.356;27.672;2024-03-22T02:51:40;98408.56;;;2.53;100.00
58373;BME280;44177;43.356;27.672;2024-03-22T02:54:06;98408.13;;;2.46;100.00
58373;BME280;44177;43.356;27.672;2024-03-22T02:56:31;98408.56;;;2.53;100.00
58373;BME280;44177;43.356;27.672;2024-03-22T02:58:57;98392.91;;;2.36;100.00
58373;BME280;44177;43.356;27.672;2024-03-22T03:01:22;98413.41;;;2.32;100.00
58373;BME280;44177;43.356;27.672;2024-03-22T03:03:48;98407.31;;;2.21;100.00
58373;BME280;44177;43.356;27.672;2024-03-22T03:06:13;98404.63;;;2.21;100.00
58373;BME280;44177;43.356;27.672;2024-03-22T03:08:40;98426.09;;;2.27;100.00
58373;BME280;44177;43.356;27.672;2024-03-22T03:11:05;98416.72;;;2.24;100.00
58373;BME280;44177;43.356;27.672;2024-03-22T03:13:31;98420.50;;;2.23;100.00
58373;BME280;44177;43.356;27.672;2024-03-22T03:15:57;98420.84;;;2.16;100.00
58373;BME280;44177;43.356;27.672;2024-03-22T03:18:23;98413.63;;;2.12;100.00
58373;BME280;44177;43.356;27.672;2024-03-22T03:20:48;98365.28;;;1.77;100.00
58373;BME280;44177;43.356;27.672;2024-03-22T03:23:14;98374.53;;;1.90;100.00
58373;BME280;44177;43.356;27.672;2024-03-22T03:25:39;98419.81;;;2.12;100.00
58373;BME280;44177;43.356;27.672;2024-03-22T03:28:05;98416.13;;;2.03;100.00
58373;BME280;44177;43.356;27.672;2024-03-22T03:30:35;98414.63;;;1.92;100.00
58373;BME280;44177;43.356;27.672;2024-03-22T03:33:01;98410.41;;;1.85;100.00
58373;BME280;44177;43.356;27.672;2024-03-22T03:35:26;98426.28;;;1.82;100.00
58373;BME280;44177;43.356;27.672;2024-03-22T03:37:52;98422.72;;;1.86;100.00
58373;BME280;44177;43.356;27.672;2024-03-22T03:40:18;98406.13;;;1.79;100.00
58373;BME280;44177;43.356;27.672;2024-03-22T03:42:43;98425.41;;;1.92;100.00
58373;BME280;44177;43.356;27.672;2024-03-22T03:45:09;98419.44;;;1.95;100.00
58373;BME280;44177;43.356;27.672;2024-03-22T03:47:34;98411.41;;;1.89;100.00
58373;BME280;44177;43.356;27.672;2024-03-22T03:50:00;98421.84;;;1.96;100.00
58373;BME280;44177;43.356;27.672;2024-03-22T03:52:25;98408.31;;;1.77;100.00
58373;BME280;44177;43.356;27.672;2024-03-22T03:54:50;98413.59;;;1.87;100.00
58373;BME280;44177;43.356;27.672;2024-03-22T03:57:16;98429.25;;;1.80;100.00
58373;BME280;44177;43.356;27.672;2024-03-22T03:59:41;98421.25;;;1.75;100.00
58373;BME280;44177;43.356;27.672;2024-03-22T04:02:07;98425.25;;;1.78;100.00
58373;BME280;44177;43.356;27.672;2024-03-22T04:04:32;98429.50;;;1.84;100.00
58373;BME280;44177;43.356;27.672;2024-03-22T04:06:58;98412.59;;;1.78;100.00
58373;BME280;44177;43.356;27.672;2024-03-22T04:09:23;98416.16;;;1.73;100.00
58373;BME280;44177;43.356;27.672;2024-03-22T04:11:49;98421.25;;;1.75;100.00
58373;BME280;44177;43.356;27.672;2024-03-22T04:14:14;98447.53;;;1.83;100.00
58373;BME280;44177;43.356;27.672;2024-03-22T04:16:40;98443.78;;;1.79;100.00
58373;BME280;44177;43.356;27.672;2024-03-22T04:19:05;98441.38;;;1.78;100.00
58373;BME280;44177;43.356;27.672;2024-03-22T04:21:30;98453.59;;;1.65;100.00
58373;BME280;44177;43.356;27.672;2024-03-22T04:23:56;98432.84;;;1.70;100.00
58373;BME280;44177;43.356;27.672;2024-03-22T04:26:21;98419.16;;;1.67;100.00
58373;BME280;44177;43.356;27.672;2024-03-22T04:28:48;98417.25;;;1.67;100.00
58373;BME280;44177;43.356;27.672;2024-03-22T04:31:14;98444.88;;;1.78;100.00
58373;BME280;44177;43.356;27.672;2024-03-22T04:33:39;98402.06;;;1.52;100.00
58373;BME280;44177;43.356;27.672;2024-03-22T04:36:05;98444.38;;;1.71;100.00
58373;BME280;44177;43.356;27.672;2024-03-22T04:38:31;98432.66;;;1.62;100.00
58373;BME280;44177;43.356;27.672;2024-03-22T04:40:57;98430.69;;;1.67;100.00
58373;BME280;44177;43.356;27.672;2024-03-22T04:43:23;98444.19;;;1.62;100.00
58373;BME280;44177;43.356;27.672;2024-03-22T04:45:50;98452.88;;;1.54;100.00
58373;BME280;44177;43.356;27.672;2024-03-22T04:48:22;98451.56;;;1.51;100.00
58373;BME280;44177;43.356;27.672;2024-03-22T04:50:52;98451.06;;;1.44;100.00
58373;BME280;44177;43.356;27.672;2024-03-22T04:53:18;98450.53;;;1.42;100.00
58373;BME280;44177;43.356;27.672;2024-03-22T04:55:44;98463.44;;;1.40;100.00
58373;BME280;44177;43.356;27.672;2024-03-22T04:58:18;98455.13;;;1.41;100.00
58373;BME280;44177;43.356;27.672;2024-03-22T05:00:44;98454.25;;;1.46;100.00
58373;BME280;44177;43.356;27.672;2024-03-22T05:03:09;98461.47;;;1.56;100.00
58373;BME280;44177;43.356;27.672;2024-03-22T05:05:35;98450.13;;;1.59;100.00
58373;BME280;44177;43.356;27.672;2024-03-22T05:08:01;98460.28;;;1.67;100.00
58373;BME280;44177;43.356;27.672;2024-03-22T05:10:28;98466.16;;;1.74;100.00
58373;BME280;44177;43.356;27.672;2024-03-22T05:12:56;98465.41;;;1.69;100.00
58373;BME280;44177;43.356;27.672;2024-03-22T05:15:22;98468.09;;;1.69;100.00
58373;BME280;44177;43.356;27.672;2024-03-22T05:17:49;98444.75;;;1.59;100.00
58373;BME280;44177;43.356;27.672;2024-03-22T05:20:14;98456.63;;;1.53;100.00
58373;BME280;44177;43.356;27.672;2024-03-22T05:22:41;98464.03;;;1.71;100.00
58373;BME280;44177;43.356;27.672;2024-03-22T05:25:08;98465.31;;;1.79;100.00
58373;BME280;44177;43.356;27.672;2024-03-22T05:27:33;98456.38;;;1.84;100.00
58373;BME280;44177;43.356;27.672;2024-03-22T05:29:59;98474.06;;;1.95;100.00
58373;BME280;44177;43.356;27.672;2024-03-22T05:32:25;98472.78;;;1.87;100.00
58373;BME280;44177;43.356;27.672;2024-03-22T05:34:51;98450.53;;;1.77;100.00
58373;BME280;44177;43.356;27.672;2024-03-22T05:37:17;98470.59;;;1.89;100.00
58373;BME280;44177;43.356;27.672;2024-03-22T05:39:42;98464.06;;;2.01;100.00
58373;BME280;44177;43.356;27.672;2024-03-22T05:42:08;98465.69;;;1.97;100.00
58373;BME280;44177;43.356;27.672;2024-03-22T05:44:34;98475.00;;;2.10;100.00
58373;BME280;44177;43.356;27.672;2024-03-22T05:46:59;98488.16;;;2.11;100.00
58373;BME280;44177;43.356;27.672;2024-03-22T05:49:25;98480.38;;;2.10;100.00
58373;BME280;44177;43.356;27.672;2024-03-22T05:51:51;98482.22;;;2.14;100.00
58373;BME280;44177;43.356;27.672;2024-03-22T05:54:16;98472.59;;;2.08;100.00
58373;BME280;44177;43.356;27.672;2024-03-22T05:56:42;98489.88;;;2.31;100.00
58373;BME280;44177;43.356;27.672;2024-03-22T05:59:07;98469.31;;;2.16;100.00
58373;BME280;44177;43.356;27.672;2024-03-22T06:01:32;98482.09;;;2.30;100.00
58373;BME280;44177;43.356;27.672;2024-03-22T06:03:58;98493.72;;;2.49;100.00
58373;BME280;44177;43.356;27.672;2024-03-22T06:06:24;98495.91;;;2.72;100.00
58373;BME280;44177;43.356;27.672;2024-03-22T06:08:52;98486.75;;;2.73;100.00
58373;BME280;44177;43.356;27.672;2024-03-22T06:11:19;98493.63;;;2.60;100.00
58373;BME280;44177;43.356;27.672;2024-03-22T06:13:46;98499.00;;;2.60;100.00
58373;BME280;44177;43.356;27.672;2024-03-22T06:16:11;98490.56;;;2.91;100.00
58373;BME280;44177;43.356;27.672;2024-03-22T06:18:37;98509.81;;;3.03;100.00
58373;BME280;44177;43.356;27.672;2024-03-22T06:21:03;98512.56;;;2.98;100.00
58373;BME280;44177;43.356;27.672;2024-03-22T06:23:28;98508.72;;;3.04;100.00
58373;BME280;44177;43.356;27.672;2024-03-22T06:25:55;98496.91;;;3.00;100.00
58373;BME280;44177;43.356;27.672;2024-03-22T06:28:21;98500.81;;;3.13;100.00
58373;BME280;44177;43.356;27.672;2024-03-22T06:30:47;98496.81;;;3.29;100.00
58373;BME280;44177;43.356;27.672;2024-03-22T06:33:12;98484.09;;;4.01;100.00
58373;BME280;44177;43.356;27.672;2024-03-22T06:35:38;98480.16;;;4.13;100.00
58373;BME280;44177;43.356;27.672;2024-03-22T06:38:03;98507.00;;;4.04;100.00
58373;BME280;44177;43.356;27.672;2024-03-22T06:40:29;98500.91;;;3.79;100.00
58373;BME280;44177;43.356;27.672;2024-03-22T06:42:55;98477.97;;;3.43;100.00
58373;BME280;44177;43.356;27.672;2024-03-22T06:45:21;98506.97;;;3.90;100.00
58373;BME280;44177;43.356;27.672;2024-03-22T06:47:46;98479.56;;;3.83;100.00
58373;BME280;44177;43.356;27.672;2024-03-22T06:50:12;98495.41;;;3.51;100.00
58373;BME280;44177;43.356;27.672;2024-03-22T06:52:38;98510.56;;;3.28;100.00
58373;BME280;44177;43.356;27.672;2024-03-22T06:55:03;98511.59;;;3.32;100.00
58373;BME280;44177;43.356;27.672;2024-03-22T06:57:29;98510.06;;;3.26;100.00
58373;BME280;44177;43.356;27.672;2024-03-22T06:59:54;98525.41;;;3.06;100.00
58373;BME280;44177;43.356;27.672;2024-03-22T07:02:20;98518.66;;;3.28;100.00
58373;BME280;44177;43.356;27.672;2024-03-22T07:04:46;98506.22;;;3.32;100.00
58373;BME280;44177;43.356;27.672;2024-03-22T07:07:11;98513.56;;;3.45;100.00
58373;BME280;44177;43.356;27.672;2024-03-22T07:09:37;98503.38;;;3.42;100.00
58373;BME280;44177;43.356;27.672;2024-03-22T07:12:02;98521.16;;;3.82;100.00
58373;BME280;44177;43.356;27.672;2024-03-22T07:14:29;98505.84;;;4.10;100.00
58373;BME280;44177;43.356;27.672;2024-03-22T07:16:54;98503.09;;;4.99;100.00
58373;BME280;44177;43.356;27.672;2024-03-22T07:19:20;98518.09;;;5.33;100.00
58373;BME280;44177;43.356;27.672;2024-03-22T07:21:48;98525.53;;;5.64;97.89
58373;BME280;44177;43.356;27.672;2024-03-22T07:24:14;98525.09;;;6.30;95.62
58373;BME280;44177;43.356;27.672;2024-03-22T07:26:39;98521.09;;;6.99;93.21
58373;BME280;44177;43.356;27.672;2024-03-22T07:29:05;98522.69;;;7.09;90.63
58373;BME280;44177;43.356;27.672;2024-03-22T07:31:30;98515.28;;;7.67;92.00
58373;BME280;44177;43.356;27.672;2024-03-22T07:33:56;98522.00;;;7.61;88.12
58373;BME280;44177;43.356;27.672;2024-03-22T07:36:21;98522.63;;;6.83;87.82
58373;BME280;44177;43.356;27.672;2024-03-22T07:38:47;98519.09;;;7.40;89.34
58373;BME280;44177;43.356;27.672;2024-03-22T07:41:15;98497.25;;;7.89;86.90
58373;BME280;44177;43.356;27.672;2024-03-22T07:43:41;98522.78;;;7.79;86.45
58373;BME280;44177;43.356;27.672;2024-03-22T07:46:06;98529.44;;;7.20;87.27
58373;BME280;44177;43.356;27.672;2024-03-22T07:48:32;98520.06;;;6.77;87.87
58373;BME280;44177;43.356;27.672;2024-03-22T07:50:58;98516.84;;;6.44;90.46
58373;BME280;44177;43.356;27.672;2024-03-22T07:53:24;98536.72;;;6.08;91.99
58373;BME280;44177;43.356;27.672;2024-03-22T07:55:50;98547.84;;;5.83;94.92
58373;BME280;44177;43.356;27.672;2024-03-22T07:58:15;98545.91;;;5.61;97.42
58373;BME280;44177;43.356;27.672;2024-03-22T08:00:41;98549.91;;;5.50;97.00
58373;BME280;44177;43.356;27.672;2024-03-22T08:03:06;98549.03;;;5.41;99.15
58373;BME280;44177;43.356;27.672;2024-03-22T08:05:32;98554.75;;;5.53;98.72
58373;BME280;44177;43.356;27.672;2024-03-22T08:07:58;98525.44;;;5.32;98.48
58373;BME280;44177;43.356;27.672;2024-03-22T08:10:23;98533.31;;;5.43;99.69
58373;BME280;44177;43.356;27.672;2024-03-22T08:12:49;98533.34;;;5.65;99.09
58373;BME280;44177;43.356;27.672;2024-03-22T08:15:14;98550.00;;;5.95;99.91
58373;BME280;44177;43.356;27.672;2024-03-22T08:17:40;98545.13;;;5.83;99.05
58373;BME280;44177;43.356;27.672;2024-03-22T08:20:06;98554.44;;;5.91;99.53
58373;BME280;44177;43.356;27.672;2024-03-22T08:22:32;98537.06;;;5.92;98.49
58373;BME280;44177;43.356;27.672;2024-03-22T08:24:57;98553.78;;;6.08;97.53
58373;BME280;44177;43.356;27.672;2024-03-22T08:27:23;98564.03;;;5.97;96.86
58373;BME280;44177;43.356;27.672;2024-03-22T08:29:49;98556.94;;;6.02;96.67
58373;BME280;44177;43.356;27.672;2024-03-22T08:32:15;98545.75;;;6.48;96.77
58373;BME280;44177;43.356;27.672;2024-03-22T08:34:40;98555.00;;;6.88;95.95
58373;BME280;44177;43.356;27.672;2024-03-22T08:37:06;98512.63;;;7.01;94.05
58373;BME280;44177;43.356;27.672;2024-03-22T08:39:32;98528.06;;;7.75;90.16
58373;BME280;44177;43.356;27.672;2024-03-22T08:41:58;98532.38;;;7.77;88.12
58373;BME280;44177;43.356;27.672;2024-03-22T08:44:23;98553.69;;;8.75;83.64
58373;BME280;44177;43.356;27.672;2024-03-22T08:46:49;98553.84;;;9.08;80.59
58373;BME280;44177;43.356;27.672;2024-03-22T08:49:15;98558.72;;;8.94;81.72
58373;BME280;44177;43.356;27.672;2024-03-22T08:51:40;98550.94;;;9.64;78.26
58373;BME280;44177;43.356;27.672;2024-03-22T08:54:06;98553.41;;;10.21;76.22
58373;BME280;44177;43.356;27.672;2024-03-22T08:56:32;98538.66;;;10.34;73.44
58373;BME280;44177;43.356;27.672;2024-03-22T08:58:58;98544.41;;;10.54;72.65
58373;BME280;44177;43.356;27.672;2024-03-22T09:01:24;98548.81;;;11.29;71.14
58373;BME280;44177;43.356;27.672;2024-03-22T09:03:49;98536.88;;;11.87;66.54
58373;BME280;44177;43.356;27.672;2024-03-22T09:06:16;98545.38;;;11.45;67.43
58373;BME280;44177;43.356;27.672;2024-03-22T09:08:41;98550.06;;;10.95;68.15
58373;BME280;44177;43.356;27.672;2024-03-22T09:11:07;98552.31;;;10.93;67.72
58373;BME280;44177;43.356;27.672;2024-03-22T09:13:32;98540.03;;;12.02;64.81
58373;BME280;44177;43.356;27.672;2024-03-22T09:16:00;98548.06;;;11.57;64.79
58373;BME280;44177;43.356;27.672;2024-03-22T09:18:26;98544.00;;;11.51;66.41
58373;BME280;44177;43.356;27.672;2024-03-22T09:20:55;98548.13;;;11.32;63.84
58373;BME280;44177;43.356;27.672;2024-03-22T09:23:21;98550.00;;;11.69;64.17
58373;BME280;44177;43.356;27.672;2024-03-22T09:25:47;98533.94;;;12.37;62.94
58373;BME280;44177;43.356;27.672;2024-03-22T09:28:13;98527.34;;;12.70;62.03
58373;BME280;44177;43.356;27.672;2024-03-22T09:30:41;98529.88;;;12.30;60.70
58373;BME280;44177;43.356;27.672;2024-03-22T09:33:08;98522.34;;;12.72;59.13
58373;BME280;44177;43.356;27.672;2024-03-22T09:35:34;98524.84;;;13.29;59.18
58373;BME280;44177;43.356;27.672;2024-03-22T09:38:00;98514.41;;;13.34;57.70
58373;BME280;44177;43.356;27.672;2024-03-22T09:40:26;98533.66;;;12.26;57.31
58373;BME280;44177;43.356;27.672;2024-03-22T09:42:53;98529.16;;;12.94;56.36
58373;BME280;44177;43.356;27.672;2024-03-22T09:45:19;98530.44;;;13.68;53.74
58373;BME280;44177;43.356;27.672;2024-03-22T09:47:46;98522.28;;;14.11;54.92
58373;BME280;44177;43.356;27.672;2024-03-22T09:50:14;98499.72;;;13.42;53.16
58373;BME280;44177;43.356;27.672;2024-03-22T09:52:41;98525.69;;;12.97;55.46
58373;BME280;44177;43.356;27.672;2024-03-22T09:55:08;98518.34;;;12.53;55.61
58373;BME280;44177;43.356;27.672;2024-03-22T09:57:38;98508.69;;;13.23;52.95
58373;BME280;44177;43.356;27.672;2024-03-22T10:00:07;98510.31;;;13.80;52.61
58373;BME280;44177;43.356;27.672;2024-03-22T10:02:34;98512.28;;;13.99;51.67
58373;BME280;44177;43.356;27.672;2024-03-22T10:04:59;98513.69;;;14.32;49.69
58373;BME280;44177;43.356;27.672;2024-03-22T10:07:25;98515.25;;;13.03;51.60
58373;BME280;44177;43.356;27.672;2024-03-22T10:09:57;98497.56;;;13.16;52.20
58373;BME280;44177;43.356;27.672;2024-03-22T10:12:23;98504.63;;;13.33;51.88
58373;BME280;44177;43.356;27.672;2024-03-22T10:14:52;98502.97;;;13.64;50.49
58373;BME280;44177;43.356;27.672;2024-03-22T10:17:18;98504.63;;;14.08;49.03
58373;BME280;44177;43.356;27.672;2024-03-22T10:19:43;98493.38;;;14.60;47.86
58373;BME280;44177;43.356;27.672;2024-03-22T10:22:08;98499.34;;;15.12;49.15
58373;BME280;44177;43.356;27.672;2024-03-22T10:24:34;98485.75;;;14.96;45.65
58373;BME280;44177;43.356;27.672;2024-03-22T10:27:00;98493.16;;;15.19;46.21
58373;BME280;44177;43.356;27.672;2024-03-22T10:29:25;98484.00;;;15.38;46.00
58373;BME280;44177;43.356;27.672;2024-03-22T10:31:55;98492.22;;;15.95;45.05
58373;BME280;44177;43.356;27.672;2024-03-22T10:34:22;98500.06;;;14.82;44.57
58373;BME280;44177;43.356;27.672;2024-03-22T10:36:49;98489.34;;;14.53;45.29
58373;BME280;44177;43.356;27.672;2024-03-22T10:39:18;98493.69;;;15.01;45.07
58373;BME280;44177;43.356;27.672;2024-03-22T10:41:48;98486.22;;;15.59;45.98
58373;BME280;44177;43.356;27.672;2024-03-22T10:44:14;98468.81;;;14.67;46.19
58373;BME280;44177;43.356;27.672;2024-03-22T10:46:44;98477.41;;;15.42;45.25
58373;BME280;44177;43.356;27.672;2024-03-22T10:49:19;98479.19;;;15.58;45.55
58373;BME280;44177;43.356;27.672;2024-03-22T10:51:58;98458.72;;;14.51;43.83
58373;BME280;44177;43.356;27.672;2024-03-22T10:54:29;98467.78;;;15.29;42.40
58373;BME280;44177;43.356;27.672;2024-03-22T10:56:56;98464.78;;;15.11;42.88
58373;BME280;44177;43.356;27.672;2024-03-22T10:59:22;98453.41;;;15.12;46.29
58373;BME280;44177;43.356;27.672;2024-03-22T11:01:49;98451.63;;;15.85;43.61
58373;BME280;44177;43.356;27.672;2024-03-22T11:04:19;98448.94;;;16.74;43.88
58373;BME280;44177;43.356;27.672;2024-03-22T11:06:48;98446.41;;;16.55;42.21
58373;BME280;44177;43.356;27.672;2024-03-22T11:09:21;98451.00;;;16.85;41.92
58373;BME280;44177;43.356;27.672;2024-03-22T11:11:47;98445.34;;;17.26;41.42
58373;BME280;44177;43.356;27.672;2024-03-22T11:14:13;98456.75;;;15.56;39.68
58373;BME280;44177;43.356;27.672;2024-03-22T11:16:38;98450.47;;;14.71;41.25
58373;BME280;44177;43.356;27.672;2024-03-22T11:19:04;98455.81;;;15.44;43.34
58373;BME280;44177;43.356;27.672;2024-03-22T11:21:32;98448.88;;;15.85;43.20
58373;BME280;44177;43.356;27.672;2024-03-22T11:24:00;98433.50;;;16.18;42.72
58373;BME280;44177;43.356;27.672;2024-03-22T11:26:26;98427.63;;;16.23;39.20
58373;BME280;44177;43.356;27.672;2024-03-22T11:28:51;98400.97;;;16.79;41.05
58373;BME280;44177;43.356;27.672;2024-03-22T11:31:17;98413.31;;;16.48;40.43
58373;BME280;44177;43.356;27.672;2024-03-22T11:33:45;98401.66;;;14.88;41.09
58373;BME280;44177;43.356;27.672;2024-03-22T11:36:11;98430.53;;;15.66;40.04
58373;BME280;44177;43.356;27.672;2024-03-22T11:38:36;98422.19;;;15.89;39.79
58373;BME280;44177;43.356;27.672;2024-03-22T11:41:02;98410.72;;;16.21;38.69
58373;BME280;44177;43.356;27.672;2024-03-22T11:43:29;98409.38;;;16.49;41.99
58373;BME280;44177;43.356;27.672;2024-03-22T11:45:55;98398.91;;;16.20;40.17
58373;BME280;44177;43.356;27.672;2024-03-22T11:48:22;98415.41;;;16.65;39.56
58373;BME280;44177;43.356;27.672;2024-03-22T11:50:47;98404.75;;;17.16;36.59
58373;BME280;44177;43.356;27.672;2024-03-22T11:53:16;98349.41;;;16.24;40.56
58373;BME280;44177;43.356;27.672;2024-03-22T11:55:41;98414.34;;;16.32;39.34
58373;BME280;44177;43.356;27.672;2024-03-22T11:58:09;98409.22;;;16.27;38.26
58373;BME280;44177;43.356;27.672;2024-03-22T12:00:35;98405.75;;;16.37;39.54
58373;BME280;44177;43.356;27.672;2024-03-22T12:03:06;98387.56;;;16.78;38.26
58373;BME280;44177;43.356;27.672;2024-03-22T12:05:32;98402.13;;;16.78;38.02
58373;BME280;44177;43.356;27.672;2024-03-22T12:07:57;98397.63;;;17.08;38.43
58373;BME280;44177;43.356;27.672;2024-03-22T12:10:22;98407.97;;;15.19;40.59
58373;BME280;44177;43.356;27.672;2024-03-22T12:12:48;98417.75;;;15.81;41.40
58373;BME280;44177;43.356;27.672;2024-03-22T12:15:13;98400.72;;;16.50;38.24
58373;BME280;44177;43.356;27.672;2024-03-22T12:17:39;98390.41;;;16.36;38.85
58373;BME280;44177;43.356;27.672;2024-03-22T12:20:07;98388.56;;;16.06;39.00
58373;BME280;44177;43.356;27.672;2024-03-22T12:22:34;98415.84;;;15.20;41.12
58373;BME280;44177;43.356;27.672;2024-03-22T12:24:59;98408.16;;;15.33;41.37
58373;BME280;44177;43.356;27.672;2024-03-22T12:27:25;98414.25;;;15.50;40.95
58373;BME280;44177;43.356;27.672;2024-03-22T12:29:50;98407.25;;;15.56;40.24
58373;BME280;44177;43.356;27.672;2024-03-22T12:32:16;98401.94;;;16.08;40.91
58373;BME280;44177;43.356;27.672;2024-03-22T12:34:41;98376.88;;;16.17;39.94
58373;BME280;44177;43.356;27.672;2024-03-22T12:37:07;98396.41;;;16.04;39.82
58373;BME280;44177;43.356;27.672;2024-03-22T12:39:32;98375.31;;;16.19;39.70
58373;BME280;44177;43.356;27.672;2024-03-22T12:41:59;98399.31;;;16.19;38.99
58373;BME280;44177;43.356;27.672;2024-03-22T12:44:24;98391.28;;;15.65;39.23